Etusivu
METAR-TAF:

METAR-TAF

Lentoasemat :

Shawano, Wisconsin, Yhdysvallat

Leveyspiiri: 44-47-14N, Pituuspiiri: 088-33-36W, korkeus merenpinnasta: 248 m

Tämänhetkinen sää

Tämä raportti tehtiin 18 minuuttia sitten, kello 07.15 UTC
tyyntä
Lämpötila 2°C
Kosteus 87%
Ilmanpaine 1016 hPa
Näkyvyys: 11.3 km
Pilvistä 3900 ft:n korkeudessa

METAR: KEZS 200715Z AUTO 00000KT 7SM OVC039 02/00 A3000 RMK AO2 T00240000

Aika: 01:33 (07:33 UTC)


TAF: puuttuu

Säähavainnot ja -ennusteet yli 4000 lentoasemalta (METAR- ja TAF-raportit).

Käytössä olevat sääasemat on merkitty karttaan keltaisilla ja punaisilla pisteillä.

Aseta hiiri pisteen päälle nähdäksesi sääaseman nimen.

Klikkaa sitten nähdäksesi säähavainnot ja -ennusteet.

Kartan vaihtaminen: klikkaa mustalla rastilla varustettuja vihreitä pisteitä, niin voit zoomata sisään; viivalla varustettua vihreää pistettä, niin voit zoomata ulos tai vihreitä nuolia, niin pääset viereisille kartoille.


METAR-TAF: